kc

Kyle Conroy

What if I had bought Apple stock instead?

Currently, Apple's stock is at an all time high. A share today is worth over 40 times its value seven years ago. So, how much would you have today if you purchased stock instead of an Apple product? See for yourself in the table below. A huge thanks to everymac.com for the original prices and release dates. All values are calculated using Apple's current stock price according to http://brivierestockquotes.appspot.com.

I have also released the data set behind the calculations, which include Apple's stock price since 1997 as well as almost all Apple products released since 1997. Code at github.com/kyleconroy/apple-stock.

Big thanks to gojomo at http://news.ycombinator.com/item?id=1291809 for the idea.

Last updated April 1, 2012

ProductRelease DateOriginal PriceStock Value Today
Apple Power Macintosh G3 233 Desktop1997-11-10$2400.0$308119
Apple Power Macintosh G3 233 Minitower1997-11-10$2400.0$308119
Apple Power Macintosh G3 266 Desktop1997-11-10$2400.0$308119
Apple Power Macintosh G3 266 Minitower1997-11-10$3000.0$385149
Apple Power Macintosh G3 300 Desktop1998-03-17$2750.0$250191
Apple Power Macintosh G3 300 Minitower1998-03-17$2399.0$218258
Apple Power Macintosh G3 333 Minitower1998-08-12$2999.0$179446
Apple Power Macintosh G3 233 All-in-One1998-03-31$1499.0$130628
Apple Power Macintosh G3 266 All-in-One1998-03-31$1799.0$156771
Apple Power Macintosh G3 300 (Blue & White)1999-01-05$1599.0$88520
Apple Power Macintosh G3 350 (Blue & White)1999-01-05$1599.0$88520
Apple Power Macintosh G3 400 (Blue & White)1999-01-05$1999.0$110664
Apple Power Macintosh G3 450 (Blue & White)1999-06-01$2999.0$160540
Apple Mac Server G3 233 Minitower1998-03-02$3349.0$352881
Apple Mac Server G3 266 Minitower1998-03-02$4499.0$474055
Apple Mac Server G3 300 Minitower1998-03-17$4999.0$454802
Apple Mac Server G3 333 Minitower1998-09-01$4599.0$323250
Apple Mac Server G3 350 (Blue & White)1999-01-05$3299.0$182633
Apple Mac Server G3 400 (Blue & White)1999-01-05$4999.0$276745
Apple Mac Server G3 450 (Blue & White)1999-06-01$4999.0$267602
Apple PowerBook G3 250 (Original/Kanga/3500)1997-11-10$5700.0$731784
Apple PowerBook G3 233 (Wallstreet)1998-05-06$2299.0$181842
Apple PowerBook G3 250 (Wallstreet)1998-05-06$2979.0$235627
Apple PowerBook G3 292 (Wallstreet)1998-05-06$4599.0$363763
Apple PowerBook G3 233 (PDQ - Late 1998)1998-09-01$2799.0$196733
Apple PowerBook G3 266 (PDQ - Late 1998)1998-09-01$3499.0$245934
Apple PowerBook G3 300 (PDQ - Late 1998)1998-09-01$4999.0$351365
Apple PowerBook G3 333 (Bronze KB/Lombard)1999-05-10$2499.0$132473
Apple PowerBook G3 400 (Bronze KB/Lombard)1999-05-10$3499.0$185484
Apple PowerBook G3 400 (Firewire/Pismo)2000-02-16$2499.0$52515
Apple PowerBook G3 500 (Firewire/Pismo)2000-02-16$3499.0$73530
Apple Power Macintosh G4 400 (PCI)1999-08-31$1599.0$58778
Apple Power Macintosh G4 450 (AGP)1999-08-31$2499.0$91862
Apple Power Macintosh G4 500 (AGP)1999-08-31$3499.0$128622
Apple Power Macintosh G4 350 (PCI)1999-10-13$1599.0$59880
Apple Power Macintosh G4 400 (AGP)1999-10-13$2499.0$93583
Apple Power Macintosh G4 350 (AGP)1999-12-02$1599.0$34797
Apple Power Macintosh G4 400 (Gigabit)2000-07-19$1599.0$36396
Apple Power Macintosh G4 450 DP (Gigabit)2000-07-19$2499.0$56882
Apple Power Macintosh G4 500 DP (Gigabit)2000-07-19$3199.0$72815
Apple Power Macintosh G4 450 Cube2000-07-19$1799.0$40948
Apple Power Macintosh G4 500 Cube2000-07-19$2299.0$52329
Apple Power Macintosh G4 466 (Digital Audio)2001-01-09$1699.0$118445
Apple Power Macintosh G4 533 (Digital Audio)2001-01-09$2199.0$153303
Apple Power Macintosh G4 667 (Digital Audio)2001-01-09$2799.0$195132
Apple Power Macintosh G4 733 (Digital Audio)2001-01-09$3499.0$243933
Apple Power Macintosh G4 733 (Quicksilver)2001-07-18$1699.0$97945
Apple Power Macintosh G4 867 (Quicksilver)2001-07-18$2499.0$144064
Apple Power Macintosh G4 800 DP (Quicksilver)2001-07-18$3499.0$201713
Apple Power Macintosh G4 800 (QS 2002)2002-01-28$1599.0$82360
Apple Power Macintosh G4 933 (QS 2002)2002-01-28$2299.0$118416
Apple Power Macintosh G4 1.0 DP (QS 2002)2002-01-28$2999.0$154471
Apple Power Macintosh G4 867 DP (MDD)2002-08-13$1699.0$139539
Apple Power Macintosh G4 1.0 DP (MDD)2002-08-13$2499.0$205243
Apple Power Macintosh G4 1.25 DP (MDD)2002-08-13$3299.0$270947
Apple Power Macintosh G4 1.0 (FW 800)2003-01-28$1499.0$123281
Apple Power Macintosh G4 1.25 DP (FW 800)2003-01-28$1999.0$164403
Apple Power Macintosh G4 1.42 DP (FW 800)2003-01-28$2699.0$221973
Apple Power Macintosh G4 1.25 (MDD 2003)2003-06-23$1299.0$81722
Apple Mac Server G4 350 (AGP)1999-12-02$2999.0$65264
Apple Mac Server G4 400 (AGP)1999-12-02$2999.0$65264
Apple Mac Server G4 450 (AGP)1999-12-02$3999.0$87027
Apple Mac Server G4 500 (AGP)1999-12-02$4499.0$97908
Apple Mac Server G4 450 DP (Gigabit)2000-07-19$3999.0$91025
Apple Mac Server G4 500 DP (Gigabit)2000-07-19$4999.0$113787
Apple Mac Server G4 533 (Digital Audio)2001-01-09$2999.0$209075
Apple Mac Server G4 533 DP (Digital Audio)2001-01-09$3999.0$278790
Apple Mac Server G4 733 (Quicksilver)2001-09-08$2799.0$193111
Apple Mac Server G4 800 DP (Quicksilver)2001-09-08$3799.0$262104
Apple Mac Server G4 933 (QS 2002)2002-01-28$2799.0$144170
Apple Mac Server G4 1.0 DP (QS 2002)2002-01-28$3299.0$169924
Apple Mac Server G4 1.0 DP (MDD)2002-08-27$2999.0$241998
Apple Mac Server G4 1.25 DP (MDD)2002-08-27$3499.0$282345
Apple PowerBook G4 400 (Original - Ti)2001-01-09$2599.0$181189
Apple PowerBook G4 500 (Original - Ti)2001-01-09$3499.0$243933
Apple PowerBook G4 550 (Gigabit - Ti)2001-10-16$2199.0$146327
Apple PowerBook G4 667 (Gigabit - Ti)2001-10-16$2999.0$199561
Apple PowerBook G4 667 (DVI - Ti)2002-04-29$2499.0$125064
Apple PowerBook G4 800 (DVI - Ti)2002-04-29$3199.0$160096
Apple PowerBook G4 867 (Ti)2002-11-06$2299.0$160088
Apple PowerBook G4 1.0 (Ti)2002-11-06$2999.0$208832
Apple PowerBook G4 867 12" (Al)2003-01-07$1799.0$145166
Apple PowerBook G4 1.0 17" (Al)2003-01-07$3299.0$266206
Apple PowerBook G4 1.0 12" (DVI - Al)2003-09-16$1599.0$85749
Apple PowerBook G4 1.0 15" (FW800 - Al)2003-09-16$1999.0$107200
Apple PowerBook G4 1.25 15" (FW800 - Al)2003-09-16$2599.0$139376
Apple PowerBook G4 1.33 17" (Al)2003-09-16$2999.0$160827
Apple PowerBook G4 1.33 12" (Al)2004-04-19$1599.0$67607
Apple PowerBook G4 1.33 15" (Al)2004-04-19$1999.0$84520
Apple PowerBook G4 1.5 15" (Al)2004-04-19$2499.0$105661
Apple PowerBook G4 1.5 17" (Al)2004-04-19$2799.0$118345
Apple PowerBook G4 1.5 12" (Al)2005-01-31$1499.0$23373
Apple PowerBook G4 1.5 15" (SMS/BT2 - Al)2005-01-31$1999.0$31170
Apple PowerBook G4 1.67 15" (Al)2005-01-31$2299.0$35848
Apple PowerBook G4 1.67 17" (Al)2005-01-31$2699.0$42085
Apple PowerBook G4 1.67 15" (DLSD/HR - Al)2005-10-19$1999.0$21814
Apple PowerBook G4 1.67 17" (DLSD/HR - Al)2005-10-19$2499.0$27271
Apple Power Macintosh G5 1.6 (PCI)2003-06-23$1999.0$125760
Apple Power Macintosh G5 1.8 (PCI-X)2003-06-23$2399.0$150925
Apple Power Macintosh G5 2.0 DP (PCI-X)2003-06-23$2999.0$188672
Apple Power Macintosh G5 1.8 DP (PCI-X)2003-11-18$2499.0$146889
Apple Power Macintosh G5 1.8 DP (PCI)2004-06-09$1999.0$79370
Apple Power Macintosh G5 2.0 DP (PCI-X 2)2004-06-09$2499.0$99223
Apple Power Macintosh G5 2.5 DP (PCI-X)2004-06-09$2999.0$119076
Apple Power Macintosh G5 1.8 (PCI)2004-10-19$1499.0$37904
Apple Power Macintosh G5 2.0 DP (PCI)2005-04-27$1999.0$33337
Apple Power Macintosh G5 2.3 DP (PCI-X)2005-04-27$2499.0$41676
Apple Power Macintosh G5 2.7 DP (PCI-X)2005-04-27$2999.0$50015
Apple Power Macintosh G5 Dual Core (2.0)2005-10-19$1999.0$21814
Apple Power Macintosh G5 Dual Core (2.3)2005-10-19$2499.0$27271
Apple Power Macintosh G5 "Quad Core" (2.5)2005-10-19$3299.0$36001
Apple Mac Pro "Quad Core" 2.0 (Original)2006-08-07$2199.0$19616
Apple Mac Pro "Quad Core" 2.66 (Original)2006-08-07$2499.0$22292
Apple Mac Pro "Quad Core" 3.0 (Original)2006-08-07$3299.0$29428
Apple Mac Pro "Eight Core" 3.0 (2,1)2007-04-04$3999.0$25433
Apple Mac Pro "Quad Core" 2.8 (2008)2008-01-08$2299.0$8048
Apple Mac Pro "Eight Core" 2.8 (2008)2008-01-08$2799.0$9799
Apple Mac Pro "Eight Core" 3.0 (2008)2008-01-08$3599.0$12600
Apple Mac Pro "Eight Core" 3.2 (2008)2008-01-08$4399.0$15400
Apple Mac Pro "Quad Core" 2.66 (2009/Nehalem)2009-03-03$2499.0$16954
Apple Mac Pro "Quad Core" 2.93 (2009/Nehalem)2009-03-03$2999.0$20346
Apple Mac Pro "Quad Core" 3.33 (2009/Nehalem)2009-12-04$3699.0$11471
Apple Mac Pro "Eight Core" 2.26 (2009/Nehalem)2009-03-03$3299.0$22382
Apple Mac Pro "Eight Core" 2.66 (2009/Nehalem)2009-03-03$4699.0$31880
Apple Mac Pro "Eight Core" 2.93 (2009/Nehalem)2009-03-03$5899.0$40022
Apple Mac Pro "Quad Core" 2.8 (2010/Nehalem)2010-07-27$2499.0$5673
Apple Mac Pro "Quad Core" 3.2 (2010/Nehalem)2010-07-27$2899.0$6581
Apple Mac Pro "Six Core" 3.33 (2010/Westmere)2010-07-27$3699.0$8397
Apple Mac Pro "Eight Core" 2.4 (2010/Westmere)2010-07-27$3499.0$7943
Apple Mac Pro "Twelve Core" 2.66 (2010/Westmere)2010-07-27$4999.0$11349
Apple Mac Pro "Twelve Core" 2.93 (2010/Westmere)2010-07-27$6199.0$14073
Apple Mac Pro "Quad Core" 2.8 (Server)2010-11-05$2999.0$5669
Apple Mac Pro "Quad Core" 3.2 (Server)2010-11-05$3399.0$6425
Apple Mac Pro "Six Core" 3.33 (Server)2010-11-05$4199.0$7938
Apple Mac Pro "Eight Core" 2.4 (Server)2010-11-05$3774.0$7134
Apple Mac Pro "Twelve Core" 2.66 (Server)2010-11-05$5274.0$9970
Apple Mac Pro "Twelve Core" 2.93 (Server)2010-11-05$6474.0$12239
Apple Xserve G4/1.02002-05-14$2999.0$140363
Apple Xserve G4/1.0 DP2002-05-14$3999.0$187166
Apple Xserve G4/1.33 (Slot Load)2003-02-10$2799.0$233724
Apple Xserve G4/1.33 DP (Slot Load)2003-02-10$3799.0$317227
Apple Xserve G4/1.33 DP Cluster Node2003-03-01$2799.0$229254
Apple Xserve G5/2.0 (PCI-X)2004-01-06$2999.0$162719
Apple Xserve G5/2.0 DP (PCI-X)2004-01-06$3999.0$216977
Apple Xserve G5/2.0 DP Cluster Node (PCI-X)2004-01-06$2999.0$162719
Apple Xserve G5/2.3 DP (PCI-X)2005-01-04$3999.0$74995
Apple Xserve G5/2.3 DP Cluster Node (PCI-X)2005-01-04$2999.0$56241
Apple Xserve Xeon 2.0 "Quad Core" (Late 2006)2006-08-07$2999.0$26752
Apple Xserve Xeon 2.66 "Quad Core" (Late 2006)2006-08-07$0.0$0
Apple Xserve Xeon 3.0 "Quad Core" (Late 2006)2006-08-07$0.0$0
Apple Xserve Xeon 2.8 "Quad Core" (Early 2008)2008-01-08$2999.0$10499
Apple Xserve Xeon 2.8 "Eight Core" (Early 2008)2008-01-08$3499.0$12250
Apple Xserve Xeon 3.0 "Eight Core" (Early 2008)2008-01-08$4299.0$15050
Apple Xserve Xeon Nehalem 2.26 "Quad Core"2009-04-07$2999.0$15635
Apple Xserve Xeon Nehalem 2.26 "Eight Core"2009-04-07$3599.0$18763
Apple Xserve Xeon Nehalem 2.66 "Eight Core"2009-04-07$4999.0$26062
Apple Xserve Xeon Nehalem 2.93 "Eight Core"2009-04-07$6199.0$32318
Apple Xserve RAID2003-02-10$5999.0$500933
Apple Xserve RAID (SFP)2004-01-06$5999.0$325493
Apple iMac G3/233 Original - Bondi (Rev. A & B)1998-05-06$1299.0$102746
Apple iMac G3/266 (Fruit Colors)1999-01-05$1199.0$66376
Apple iMac G3/333 (Fruit Colors)1999-04-14$1199.0$80952
Apple iMac G3/350 (Slot Loading - Blueberry)1999-10-05$999.0$35253
Apple iMac G3/400 DV (Slot Loading - Fruit)1999-10-05$1299.0$45839
Apple iMac G3/400 DV SE (Slot Loading)1999-10-05$1499.0$52897
Apple iMac G3/350 (Summer 2000 - Indigo)2000-07-19$799.0$18186
Apple iMac G3/400 DV (Summer 2000 - I/R)2000-07-19$999.0$22739
Apple iMac G3/450 DV+ (Summer 2000)2000-07-19$1299.0$29567
Apple iMac G3/500 DV SE (Summer 2000)2000-07-19$1499.0$34120
Apple iMac G3/400 (Early 2001 - Indigo)2001-02-22$899.0$57339
Apple iMac G3/500 (Early 2001 - Flower/Blue)2001-02-22$1199.0$76474
Apple iMac G3/600 SE (Early 2001)2001-02-22$1499.0$95609
Apple iMac G3/500 (Summer 2001 - I/S)2001-07-18$799.0$46061
Apple iMac G3/600 (Summer 2001)2001-07-18$999.0$57591
Apple iMac G3/700 SE (Summer 2001)2001-07-18$1499.0$86415
Apple iMac G4/700 (Flat Panel)2002-01-07$1299.0$68018
Apple iMac G4/800 (Flat Panel)2002-01-07$1799.0$94200
Apple iMac G4/800 17-Inch (Flat Panel)2002-07-17$1999.0$153260
Apple iMac G4/800 - X Only (Flat Panel)2003-02-04$1299.0$106687
Apple iMac G4/1.0 17-Inch (Flat Panel)2003-02-04$1799.0$147752
Apple iMac G4/1.0 15-Inch "FP" (USB 2.0)2003-09-08$1299.0$68497
Apple iMac G4/1.25 17-Inch "FP" (USB 2.0)2003-09-08$1799.0$94862
Apple iMac G4/1.25 20-Inch "FP" (USB 2.0)2003-11-18$2199.0$129255
Apple iMac G5/1.6 17-Inch2004-08-31$1299.0$45148
Apple iMac G5/1.8 17-Inch2004-08-31$1499.0$52100
Apple iMac G5/1.8 20-Inch2004-08-31$1899.0$66002
Apple iMac G5/1.8 17-Inch (ALS)2005-05-03$1299.0$21508
Apple iMac G5/2.0 17-Inch (ALS)2005-05-03$1499.0$24819
Apple iMac G5/2.0 20-Inch (ALS)2005-05-03$1799.0$29787
Apple iMac G5/1.9 17-Inch (iSight)2005-10-12$1299.0$15813
Apple iMac G5/2.1 20-Inch (iSight)2005-10-12$1699.0$20682
Apple iMac "Core Duo" 1.83 17-Inch2006-01-10$1299.0$9631
Apple iMac "Core Duo" 2.0 20-Inch2006-01-10$1699.0$12597
Apple iMac "Core Duo" 1.83 17-Inch (IG)2006-07-05$899.0$9456
Apple iMac "Core 2 Duo" 1.83 17-Inch (IG)2006-09-06$999.0$8552
Apple iMac "Core 2 Duo" 2.0 17-Inch2006-09-06$1199.0$10265
Apple iMac "Core 2 Duo" 2.16 17-Inch2006-09-06$1299.0$11121
Apple iMac "Core 2 Duo" 2.16 20-Inch2006-09-06$1499.0$12833
Apple iMac "Core 2 Duo" 2.33 20-Inch2006-09-06$1749.0$14973
Apple iMac "Core 2 Duo" 2.16 24-Inch2006-09-06$1999.0$17114
Apple iMac "Core 2 Duo" 2.33 24-Inch2006-09-06$2249.0$19254
Apple iMac "Core 2 Duo" 2.0 20-Inch (Al)2007-08-07$1199.0$5323
Apple iMac "Core 2 Duo" 2.4 20-Inch (Al)2007-08-07$1499.0$6655
Apple iMac "Core 2 Duo" 2.4 24-Inch (Al)2007-08-07$1799.0$7987
Apple iMac "Core 2 Extreme" 2.8 24-Inch (Al)2007-08-07$2299.0$10207
Apple iMac "Core 2 Duo" 2.4 20-Inch (Early 2008)2008-04-28$1199.0$4173
Apple iMac "Core 2 Duo" 2.66 20-Inch (Early 2008)2008-04-28$1499.0$5217
Apple iMac "Core 2 Duo" 2.8 24-Inch (Early 2008)2008-04-28$1799.0$6262
Apple iMac "Core 2 Duo" 3.06 24-Inch (Early 2008)2008-04-28$2199.0$7654
Apple iMac "Core 2 Duo" 2.66 20-Inch (Early 2009)2009-03-03$1199.0$8134
Apple iMac "Core 2 Duo" 2.66 24-Inch (Early 2009)2009-03-03$1499.0$10170
Apple iMac "Core 2 Duo" 2.93 24-Inch (Early 2009)2009-03-03$1799.0$12205
Apple iMac "Core 2 Duo" 3.06 24-Inch (Early 2009)2009-03-03$2199.0$14919
Apple iMac "Core 2 Duo" 2.0 20-Inch (Mid-2009)2009-04-07$899.0$4686
Apple iMac "Core 2 Duo" 2.26 20-Inch (Mid-2009)2010-03-04$899.0$2557
Apple iMac "Core 2 Duo" 3.06 21.5-Inch (Late 2009)2009-10-20$1199.0$3616
Apple iMac "Core 2 Duo" 3.33 21.5-Inch (Late 2009)2009-10-20$1399.0$4220
Apple iMac "Core 2 Duo" 3.06 27-Inch (Late 2009)2009-10-20$1699.0$5124
Apple iMac "Core 2 Duo" 3.33 27-Inch (Late 2009)2009-10-20$1899.0$5728
Apple iMac "Core i5" 2.66 27-Inch (Late 2009)2009-10-20$1999.0$6029
Apple iMac "Core i7" 2.8 27-Inch (Late 2009)2009-10-20$2199.0$6633
Apple iMac "Core i3" 3.06 21.5-Inch (Mid-2010)2010-07-27$1199.0$2722
Apple iMac "Core i3" 3.2 21.5-Inch (Mid-2010)2010-07-27$1499.0$3403
Apple iMac "Core i5" 3.6 21.5-Inch (Mid-2010)2010-07-27$1699.0$3857
Apple iMac "Core i3" 3.2 27-Inch (Mid-2010)2010-07-27$1699.0$3857
Apple iMac "Core i5" 2.8 27-Inch (Mid-2010)2010-07-27$1999.0$4538
Apple iMac "Core i5" 3.6 27-Inch (Mid-2010)2010-07-27$1899.0$4311
Apple iMac "Core i7" 2.93 27-Inch (Mid-2010)2010-07-27$2199.0$4992
Apple iMac "Core i5" 2.5 21.5-Inch (Mid-2011)2011-05-03$1199.0$2064
Apple iMac "Core i5" 2.7 21.5-Inch (Mid-2011)2011-05-03$1499.0$2581
Apple iMac "Core i7" 2.8 21.5-Inch (Mid-2011)2011-05-03$1699.0$2925
Apple iMac "Core i5" 2.7 27-Inch (Mid-2011)2011-05-03$1699.0$2925
Apple iMac "Core i5" 3.1 27-Inch (Mid-2011)2011-05-03$1999.0$3441
Apple iMac "Core i7" 3.4 27-Inch (Mid-2011)2011-05-03$2199.0$3786
Apple iMac "Core i3" 3.1 21.5-Inch (Late 2011)2011-08-08$999.0$1695
Apple eMac G4/7002002-04-29$999.0$49995
Apple eMac G4/8002002-08-13$1499.0$123113
Apple eMac G4/800 (ATI)2003-05-06$799.0$54747
Apple eMac G4/1.0 (ATI)2003-05-06$999.0$68451
Apple eMac G4/1.25 (USB 2.0)2004-04-13$799.0$35563
Apple eMac G4/1.42 (2005)2005-05-03$799.0$13229
Apple Mac mini G4/1.252005-01-11$499.0$9268
Apple Mac mini G4/1.422005-01-11$599.0$11125
Apple Mac mini G4/1.332005-09-27$499.0$5598
Apple Mac mini G4/1.52005-09-27$599.0$6720
Apple Mac mini "Core Solo" 1.52006-02-28$599.0$5243
Apple Mac mini "Core Duo" 1.662006-02-28$799.0$6994
Apple Mac mini "Core Duo" 1.832006-09-06$799.0$6840
Apple Mac mini "Core 2 Duo" 1.832007-08-07$599.0$2659
Apple Mac mini "Core 2 Duo" 2.02007-08-07$799.0$3547
Apple Mac mini "Core 2 Duo" 2.0 (Early 2009)2009-03-03$599.0$4063
Apple Mac mini "Core 2 Duo" 2.26 (Early 2009)2009-03-03$749.0$5081
Apple Mac mini "Core 2 Duo" 2.26 (Late 2009)2009-10-20$599.0$1806
Apple Mac mini "Core 2 Duo" 2.53 (Late 2009)2009-10-20$799.0$2410
Apple Mac mini "Core 2 Duo" 2.66 (Late 2009)2009-10-20$849.0$2560
Apple Mac mini "Core 2 Duo" 2.53 (Server)2009-10-20$999.0$3013
Apple Mac mini "Core 2 Duo" 2.4 (Mid-2010)2010-06-15$699.0$1613
Apple Mac mini "Core 2 Duo" 2.66 (Mid-2010)2010-06-15$849.0$1960
Apple Mac mini "Core 2 Duo" 2.66 (Server)2010-06-15$999.0$2306
Apple Mac mini "Core i5" 2.3 (Mid-2011)2011-07-20$599.0$928
Apple Mac mini "Core i5" 2.5 (Mid-2011)2011-07-20$799.0$1238
Apple Mac mini "Core i7" 2.7 (Mid-2011)2011-07-20$899.0$1393
Apple Mac mini "Core i7" 2.0 (Mid-2011/Server)2011-07-20$999.0$1548
Apple iBook G3/300 (Original/Clamshell)1999-07-21$1599.0$70908
Apple iBook G3/366 SE (Original/Clamshell)2000-02-16$1799.0$37805
Apple iBook G3/366 (Firewire/Clamshell)2000-09-13$1499.0$30990
Apple iBook G3/466 SE (Firewire/Clamshell)2000-09-13$1799.0$37192
Apple iBook G3/500 (Dual USB - Tr)2001-05-01$1299.0$60047
Apple iBook G3/500 (Late 2001 - Tr)2001-10-16$1199.0$79784
Apple iBook G3/600 (Late 2001 - Tr)2001-10-16$1499.0$99747
Apple iBook G3/600 14-Inch (Early 2002 - Tr)2002-01-07$1799.0$94200
Apple iBook G3/600 (16 VRAM - Tr)2002-05-20$1199.0$58113
Apple iBook G3/700 (16 VRAM - Tr)2002-05-20$1499.0$72653
Apple iBook G3/700 14-Inch (16 VRAM - Tr)2002-05-20$1799.0$87194
Apple iBook G3/700 (16 VRAM - Op)2002-11-06$999.0$69564
Apple iBook G3/800 (32 VRAM - Tr)2002-11-06$1299.0$90454
Apple iBook G3/800 14-Inch (32 VRAM - Tr)2002-11-06$1599.0$111345
Apple iBook G3/800 (Early 2003 - Op)2003-04-22$999.0$88602
Apple iBook G3/900 (Early 2003 - Op)2003-04-22$1299.0$115209
Apple iBook G3/900 14-Inch (Early 2003 - Op)2003-04-22$1499.0$132947
Apple iBook G4/800 12-Inch (Original - Op)2003-10-22$1099.0$57900
Apple iBook G4/933 14-Inch (Original - Op)2003-10-22$1299.0$68437
Apple iBook G4/1.0 14-Inch (Original - Op)2003-10-22$1499.0$78974
Apple iBook G4/1.0 12-Inch (Early 2004 - Op)2004-04-19$1099.0$46467
Apple iBook G4/1.0 14-Inch (Early 2004 - Op)2004-04-19$1299.0$54923
Apple iBook G4/1.2 14-Inch (Early 2004 - Op)2004-04-19$1499.0$63379
Apple iBook G4/1.2 12-Inch (Late 2004 - Op)2004-10-19$999.0$25261
Apple iBook G4/1.33 14-Inch (Late 2004 - Op)2004-10-19$1299.0$32847
Apple iBook G4/1.33 12-Inch (Mid-2005 - Op)2005-07-26$999.0$13727
Apple iBook G4/1.42 14-Inch (Mid-2005 - Op)2005-07-26$1299.0$17850
Apple MacBook "Core Duo" 1.83 13"2006-05-16$1099.0$10140
Apple MacBook "Core Duo" 2.0 13" (White)2006-05-16$1299.0$11985
Apple MacBook "Core Duo" 2.0 13" (Black)2006-05-16$1499.0$13830
Apple MacBook "Core 2 Duo" 1.83 13"2006-11-08$1099.0$7991
Apple MacBook "Core 2 Duo" 2.0 13" (White/06)2006-11-08$1299.0$9445
Apple MacBook "Core 2 Duo" 2.0 13" (Black)2006-11-08$1499.0$10900
Apple MacBook "Core 2 Duo" 2.0 13" (White/07)2007-05-15$1099.0$6128
Apple MacBook "Core 2 Duo" 2.16 13" (White)2007-05-15$1299.0$7243
Apple MacBook "Core 2 Duo" 2.16 13" (Black)2007-05-15$1499.0$8358
Apple MacBook "Core 2 Duo" 2.0 13" (White-SR)2007-11-01$1099.0$3515
Apple MacBook "Core 2 Duo" 2.2 13" (White-SR)2007-11-01$1299.0$4155
Apple MacBook "Core 2 Duo" 2.2 13" (Black-SR)2007-11-01$1499.0$4794
Apple MacBook "Core 2 Duo" 2.1 13" (White-08)2008-02-26$1099.0$5530
Apple MacBook "Core 2 Duo" 2.4 13" (White-08)2008-02-26$1299.0$6536
Apple MacBook "Core 2 Duo" 2.4 13" (Black-08)2008-02-26$1499.0$7542
Apple MacBook "Core 2 Duo" 2.0 13" (Unibody)2008-10-14$1299.0$7482
Apple MacBook "Core 2 Duo" 2.4 13" (Unibody)2008-10-14$1599.0$9210
Apple MacBook "Core 2 Duo" 2.0 13" (White-09)2009-01-20$999.0$7659
Apple MacBook "Core 2 Duo" 2.13 13" (White-09)2009-05-27$999.0$4501
Apple MacBook "Core 2 Duo" 2.26 13" (Uni/Late 09)2009-10-20$999.0$3013
Apple MacBook "Core 2 Duo" 2.4 13" (Mid-2010)2010-05-18$999.0$2373
Apple MacBook Pro "Core Duo" 1.67 15"2006-01-10$1999.0$14821
Apple MacBook Pro "Core Duo" 1.83 15"2006-01-10$2499.0$18529
Apple MacBook Pro "Core Duo" 2.0 15"2006-02-14$2499.0$22150
Apple MacBook Pro "Core Duo" 2.16 15"2006-02-14$2799.0$24809
Apple MacBook Pro "Core Duo" 2.16 17"2006-04-24$2799.0$25523
Apple MacBook Pro "Core 2 Duo" 2.16 15"2006-10-24$1999.0$14787
Apple MacBook Pro "Core 2 Duo" 2.33 15"2006-10-24$2499.0$18485
Apple MacBook Pro "Core 2 Duo" 2.33 17"2006-10-24$2799.0$20705
Apple MacBook Pro "Core 2 Duo" 2.2 15" (SR)2007-06-05$1999.0$9770
Apple MacBook Pro "Core 2 Duo" 2.4 15" (SR)2007-06-05$2499.0$12213
Apple MacBook Pro "Core 2 Duo" 2.6 15" (SR)2007-11-01$2749.0$8793
Apple MacBook Pro "Core 2 Duo" 2.4 17" (SR)2007-06-05$2799.0$13680
Apple MacBook Pro "Core 2 Duo" 2.6 17" (SR)2007-11-01$3049.0$9752
Apple MacBook Pro "Core 2 Duo" 2.4 15" (08)2008-02-26$1999.0$10058
Apple MacBook Pro "Core 2 Duo" 2.5 15" (08)2008-02-26$2499.0$12574
Apple MacBook Pro "Core 2 Duo" 2.6 15" (08)2008-02-26$2749.0$13832
Apple MacBook Pro "Core 2 Duo" 2.5 17" (08)2008-02-26$2799.0$14084
Apple MacBook Pro "Core 2 Duo" 2.6 17" (08)2008-02-26$3049.0$15342
Apple MacBook Pro "Core 2 Duo" 2.4 15" (Unibody)2008-10-14$1999.0$11515
Apple MacBook Pro "Core 2 Duo" 2.53 15" (Unibody)2008-10-14$2499.0$14395
Apple MacBook Pro "Core 2 Duo" 2.8 15" (Unibody)2008-10-14$2799.0$16123
Apple MacBook Pro "Core 2 Duo" 2.66 17" (Unibody)2009-01-06$2799.0$18040
Apple MacBook Pro "Core 2 Duo" 2.93 17" (Unibody)2009-01-06$3099.0$19974
Apple MacBook Pro "Core 2 Duo" 2.66 15" (Unibody)2009-03-03$2499.0$16954
Apple MacBook Pro "Core 2 Duo" 2.93 15" (Unibody)2009-03-03$2799.0$18989
Apple MacBook Pro "Core 2 Duo" 2.26 13" (SD/FW)2009-06-08$1199.0$4997
Apple MacBook Pro "Core 2 Duo" 2.53 13" (SD/FW)2009-06-08$1499.0$6247
Apple MacBook Pro "Core 2 Duo" 2.53 15" (SD)2009-06-08$1699.0$7081
Apple MacBook Pro "Core 2 Duo" 2.66 15" (SD)2009-06-08$1999.0$8331
Apple MacBook Pro "Core 2 Duo" 2.8 15" (SD)2009-06-08$2299.0$9581
Apple MacBook Pro "Core 2 Duo" 3.06 15" (SD)2009-06-08$2599.0$10832
Apple MacBook Pro "Core 2 Duo" 2.8 17" Mid-20092009-06-08$2499.0$10415
Apple MacBook Pro "Core 2 Duo" 3.06 17" Mid-20092009-06-08$2799.0$11665
Apple MacBook Pro "Core 2 Duo" 2.4 13" Mid-20102010-04-13$1199.0$2965
Apple MacBook Pro "Core 2 Duo" 2.66 13" Mid-20102010-04-13$1499.0$3707
Apple MacBook Pro "Core i5" 2.4 15" Mid-20102010-04-13$1799.0$4449
Apple MacBook Pro "Core i5" 2.53 15" Mid-20102010-04-13$1999.0$4943
Apple MacBook Pro "Core i7" 2.66 15" Mid-20102010-04-13$2199.0$5438
Apple MacBook Pro "Core i7" 2.8 15" Mid-20102010-10-20$2399.0$4631
Apple MacBook Pro "Core i5" 2.53 17" Mid-20102010-04-13$2299.0$5685
Apple MacBook Pro "Core i7" 2.66 17" Mid-20102010-04-13$2499.0$6180
Apple MacBook Pro "Core i7" 2.8 17" Mid-20102010-10-20$2699.0$5211
Apple MacBook Pro "Core i5" 2.3 13" Early 20112011-02-24$1199.0$2096
Apple MacBook Pro "Core i7" 2.7 13" Early 20112011-02-24$1499.0$2621
Apple MacBook Pro "Core i7" 2.0 15" Early 20112011-02-24$1799.0$3145
Apple MacBook Pro "Core i7" 2.2 15" Early 20112011-02-24$2199.0$3845
Apple MacBook Pro "Core i7" 2.3 15" Early 20112011-02-24$2449.0$4282
Apple MacBook Pro "Core i7" 2.2 17" Early 20112011-02-24$2499.0$4369
Apple MacBook Pro "Core i7" 2.3 17" Early 20112011-02-24$2749.0$4806
Apple MacBook Pro "Core i5" 2.4 13" Late 20112011-10-24$1199.0$1771
Apple MacBook Pro "Core i7" 2.8 13" Late 20112011-10-24$1499.0$2214
Apple MacBook Pro "Core i7" 2.2 15" Late 20112011-10-24$1799.0$2658
Apple MacBook Pro "Core i7" 2.4 15" Late 20112011-10-24$2199.0$3249
Apple MacBook Pro "Core i7" 2.5 15" Late 20112011-10-24$2449.0$3618
Apple MacBook Pro "Core i7" 2.4 17" Late 20112011-10-24$2499.0$3692
Apple MacBook Pro "Core i7" 2.5 17" Late 20112011-10-24$2749.0$4061
Apple MacBook Air "Core 2 Duo" 1.6 13" (Original)2008-01-15$1799.0$6380
Apple MacBook Air "Core 2 Duo" 1.8 13" (Original)2008-01-15$3098.0$10987
Apple MacBook Air "Core 2 Duo" 1.6 13" (NVIDIA)2008-10-14$1799.0$10363
Apple MacBook Air "Core 2 Duo" 1.86 13" (NVIDIA)2008-10-14$2499.0$14395
Apple MacBook Air "Core 2 Duo" 1.86 13" (Mid-09)2009-06-08$1499.0$6247
Apple MacBook Air "Core 2 Duo" 2.13 13" (Mid-09)2009-06-08$1799.0$7498
Apple MacBook Air "Core 2 Duo" 1.4 11" (Late '10)2010-10-20$999.0$1928
Apple MacBook Air "Core 2 Duo" 1.6 11" (Late '10)2010-10-20$1299.0$2508
Apple MacBook Air "Core 2 Duo" 1.86 13" (Late '10)2010-10-20$1299.0$2508
Apple MacBook Air "Core 2 Duo" 2.13 13" (Late '10)2010-10-20$1699.0$3280
Apple MacBook Air "Core i5" 1.6 11" (Mid-2011)2011-07-20$999.0$1548
Apple MacBook Air "Core i7" 1.8 11" (Mid-2011)2011-07-20$1349.0$2090
Apple MacBook Air "Core i5" 1.7 13" (Mid-2011)2011-07-20$1299.0$2012
Apple MacBook Air "Core i7" 1.8 13" (Mid-2011)2011-07-20$1699.0$2632
Apple MacBook Air "Core i5" 1.6 13" (Early 2012)2012-02-10$999.0$1213
Apple iPod (Original/Scroll) 5 GB, 10 GB2001-10-23$399.0$26374
Apple iPod 2nd Gen (Touch Wheel) 5, 10, 20 GB2002-03-21$299.0$14766
Apple iPod 3rd Gen (10/15/30) 10, 15, 30 GB2003-04-28$299.0$25868
Apple iPod 3rd Gen (10/20/40) 10, 20, 40 GB2003-09-08$299.0$15766
Apple iPod 3rd Gen (15/20/40) 15, 20, 40 GB2004-01-06$299.0$16223
Apple iPod 4th Gen (ClickWheel) 20 GB, 40 GB2004-07-19$299.0$11218
Apple iPod U2 Edition (4th Gen) 20 GB2004-10-26$349.0$8722
Apple iPod photo (30) 30 GB2005-02-23$349.0$4742
Apple iPod photo (40/60) 40 GB, 60 GB2004-10-26$499.0$12470
Apple iPod Color Display 20 GB, 60 GB2005-06-28$299.0$4804
Apple iPod U2 Edition (Color) 20 GB2005-06-28$329.0$5286
Apple iPod 5th Gen (with Video) 30 GB, 60 GB2005-10-12$299.0$3639
Apple iPod U2 Edition 5th Gen 30 GB2006-06-06$329.0$3302
Apple iPod 5th Gen - Enhanced 30 GB, 80 GB2006-09-12$249.0$2055
Apple iPod U2 Edition 5th Gen Enhanced 30 GB2006-09-12$279.0$2303
Apple iPod classic ("Original"/6th Gen) 80 GB, 160 GB2007-09-05$249.0$1091
Apple iPod classic (Late 2008/7th Gen) 120 GB, 160 GB2008-09-09$249.0$984
Apple iPod mini 4 GB2004-01-06$249.0$13510
Apple iPod mini (2nd Gen) 4 GB, 6 GB2005-02-23$199.0$2704
Apple iPod nano 1 GB, 2 GB, 4 GB2005-09-07$149.0$1835
Apple iPod nano (2nd Gen) 2 GB, 4 GB, 8 GB2006-09-12$149.0$1229
Apple iPod nano 2nd Gen (RED) 4 GB, 8 GB2006-10-13$199.0$1590
Apple iPod nano (3rd Gen/Fat) 4 GB, 8 GB2007-09-05$149.0$653
Apple iPod nano (4th Gen) 8 GB, 16 GB*2008-09-09$149.0$588
Apple iPod nano (5th Gen/Camera) 8 GB, 16 GB2009-09-09$149.0$521
Apple iPod nano (6th Gen/Multitouch) 8 GB, 16 GB2010-09-01$149.0$356
Apple iPod shuffle (White) 512 MB, 1 GB2005-01-11$99.0$1838
Apple iPod shuffle 2nd Gen (Silver) 1 GB2006-09-12$79.0$652
Apple iPod shuffle 2nd Gen (Colors/Early 2007) 1 GB2007-01-30$79.0$553
Apple iPod shuffle 2nd Gen (Late 2007) 1 GB, 2 GB2007-09-05$79.0$346
Apple iPod shuffle 2nd Gen (Late 2008) 1 GB, 2 GB2008-09-09$49.0$193
Apple iPod shuffle 3rd Gen 4 GB2009-03-11$79.0$511
Apple iPod shuffle 3rd Gen (Colors) 2 GB, 4 GB2009-09-09$59.0$206
Apple iPod shuffle 4th Gen (Wheel/VoiceOver) 2 GB2010-09-01$49.0$117
Apple iPod touch (Original) 8, 16, 32 GB2007-09-05$299.0$1310
Apple iPod touch (2nd Gen) 8, 16, 32 GB2008-09-09$229.0$905
Apple iPod touch (3rd Gen/8 GB) 8 GB2009-09-09$199.0$697
Apple iPod touch (3rd Gen/32 & 64 GB) 32, 64 GB2009-09-09$299.0$1047
Apple iPod touch (4th Gen/FaceTime) 8, 32, 64 GB2010-09-01$229.0$548
Apple iPod touch (4.5/5th Gen/White) 8, 32, 64 GB2011-10-04$199.0$320
Apple TV (Original)2007-01-09$299.0$1936
Apple TV (2nd Generation)2010-09-01$99.0$237
Apple TV (3rd Generation)2012-03-07$99.0$111
Apple iPhone (Original/EDGE) 4, 8, 16 GB2007-01-09$499.0$3231
Apple iPhone 3G 8, 16 GB2008-06-09$199.0$656
Apple iPhone 3GS 8, 16, 32 GB*2009-06-08$199.0$829
Apple iPhone 3G (China/No Wi-Fi) 8 GB2009-10-30$0.0$0
Apple iPhone 3GS (China/No Wi-Fi) 16, 32 GB2009-10-30$0.0$0
Apple iPhone 4 (GSM) 8, 16, 32 GB2010-06-07$199.0$475
Apple iPhone 4 (CDMA/Verizon/Sprint) 8, 16, 32 GB2011-01-11$199.0$349
Apple iPhone 4S 16, 32, 64 GB2011-10-04$199.0$320
Apple iPad Wi-Fi (Original) 16, 32, 64 GB2010-01-27$499.0$1439
Apple iPad Wi-Fi/3G/GPS (Original) 16, 32, 64 GB2010-01-27$629.0$1814
Apple iPad 2 (Wi-Fi Only) 16, 32, 64 GB2011-03-02$499.0$849
Apple iPad 2 (Wi-Fi/GSM/GPS) 16, 32, 64 GB2011-03-02$629.0$1070
Apple iPad 2 (Wi-Fi/CDMA/GPS) 16, 32, 64 GB2011-03-02$629.0$1070
Apple iPad 3rd Gen (Wi-Fi Only) 16, 32, 64 GB2012-03-07$499.0$563
Apple iPad 3rd Gen (Wi-Fi/4G LTE AT&T/GPS) 16, 32, 64 GB2012-03-07$629.0$710
Apple iPad 3rd Gen (Wi-Fi/4G LTE Verizon/GPS) 16, 32, 64 GB2012-03-07$629.0$710